Aviation Digital Data Service (ADDS)

Output produced by METARs form (0237 UTC 22 July 2017)
found at http://www.aviationweather.gov/adds/metars/
 
GMAD 220230Z 27002KT CAVOK 18/14 Q1011 NOSIG
TAF GMAD 212300Z 2200/2306 20006KT CAVOK 
     TEMPO 2202/2210 6000 BKN016 
     BECMG 2212/2214 28012KT 
     BECMG 2219/2222 20005KT
       
GMFO 220200Z VRB02KT 9999 FEW030 SCT100 21/12 Q1015 NOSIG
TAF GMFO 212300Z 2200/2306 28006KT 9999 FEW030 SCT100 
     BECMG 2216/2220 36017KT 9999 SCT030 
     PROB30 
     TEMPO 2223/2306 22008KT TSRA FEW040CB
       
GMMW 220200Z 27003KT CAVOK 19/09 Q1013 NOSIG
TAF GMMW 212300Z 2200/2306 VRB02KT CAVOK 
     TEMPO 2208/2218 04010KT
       
GMFM 220200Z 28002KT CAVOK 16/14 Q1016 NOSIG
TAF GMFM 212300Z 2200/2306 30003KT CAVOK 
     PROB30 
     TEMPO 2204/2210 3000 BR BKN010 
     BECMG 2210/2214 31010KT 8000 NSC 
     BECMG 2220/2224 VRB02KT
       
GMTA 220200Z 00000KT CAVOK 22/19 Q1012 NOSIG
TAF GMTA 212300Z 2200/2306 VRB02KT CAVOK 
     BECMG 2206/2208 35010KT 
     BECMG 2222/2224 VRB02KT SCT010
       
GMMI 220200Z AUTO 05013KT 9999NDV NCD 19/// Q1013 NOSIG
TAF GMMI 212300Z 2200/2306 02008KT 8000 NSC
       
GMAD 220230Z 27002KT CAVOK 18/14 Q1011 NOSIG
TAF GMAD 212300Z 2200/2306 20006KT CAVOK 
     TEMPO 2202/2210 6000 BKN016 
     BECMG 2212/2214 28012KT 
     BECMG 2219/2222 20005KT
       
GMFF 220200Z 00000KT CAVOK 16/12 Q1016 NOSIG
TAF GMFF 212300Z 2200/2306 20004KT CAVOK 
     BECMG 2208/2212 32010KT 
     BECMG 2214/2218 SCT033 
     BECMG 2222/2302 20004KT CAVOK
       
GMFK 212300Z 22004KT CAVOK 33/M04 Q1015 NOSIG
GMFM 220200Z 28002KT CAVOK 16/14 Q1016 NOSIG
TAF GMFM 212300Z 2200/2306 30003KT CAVOK 
     PROB30 
     TEMPO 2204/2210 3000 BR BKN010 
     BECMG 2210/2214 31010KT 8000 NSC 
     BECMG 2220/2224 VRB02KT
       
GMFO 220200Z VRB02KT 9999 FEW030 SCT100 21/12 Q1015 NOSIG
TAF GMFO 212300Z 2200/2306 28006KT 9999 FEW030 SCT100 
     BECMG 2216/2220 36017KT 9999 SCT030 
     PROB30 
     TEMPO 2223/2306 22008KT TSRA FEW040CB
       
GMMB 220200Z AUTO VRB01KT //// ////// 17/12 Q1016 NOSIG
GMME 220230Z VRB02KT 9999 SCT015 15/13 Q1014 NOSIG
TAF GMME 212300Z 2200/2306 VRB02KT 9999 SCT020 
     TEMPO 2206/2212 32010KT CAVOK 
     TEMPO 2212/2218 8000 SCT015 
     BECMG 2220/2224 26006KT
       
GMMH 212100Z 02019KT 8000 NSC 21/18 Q1014 NOSIG
TAF GMMH 212300Z 2200/2306 02025KT 8000 NSC 
     BECMG 2200/2203 BKN006 
     BECMG 2210/2212 SCT010 
     BECMG 2300/2303 BKN006
       
GMMI 220200Z AUTO 05013KT 9999NDV NCD 19/// Q1013 NOSIG
TAF GMMI 212300Z 2200/2306 02008KT 8000 NSC
       
GMML 220200Z 02013KT 9999 SCT015 20/17 Q1014 NOSIG
TAF GMML 212300Z 2200/2306 02015KT 9999 SCT020 
     BECMG 2200/2203 BKN013 
     BECMG 2212/2215 FEW010 
     BECMG 2222/2224 BKN006
       
GMMN 220230Z 01007KT 9999 SCT020 19/15 Q1015 NOSIG
TAF GMMN 212300Z 2200/2306 36006KT 9999 SCT020 
     BECMG 2208/2211 36012KT CAVOK 
     TEMPO 2214/2218 36014KT
       
GMMW 220200Z 27003KT CAVOK 19/09 Q1013 NOSIG
TAF GMMW 212300Z 2200/2306 VRB02KT CAVOK 
     TEMPO 2208/2218 04010KT
       
GMMX 220230Z 04007KT CAVOK 18/09 Q1015 NOSIG
TAF GMMX 212300Z 2200/2306 02006KT CAVOK 
     TEMPO 2215/2220 32016KT
       
GMMZ 220200Z VRB02KT CAVOK 24/M01 Q1014 NOSIG
TAF GMMZ 211700Z 2118/2224 15016KT 9999 FEW050 
     BECMG 2121/2123 24005KT 
     BECMG 2213/2215 20016G32KT
       
GMTA 220200Z 00000KT CAVOK 22/19 Q1012 NOSIG
TAF GMTA 212300Z 2200/2306 VRB02KT CAVOK 
     BECMG 2206/2208 35010KT 
     BECMG 2222/2224 VRB02KT SCT010
       
GMTN 220200Z 24013KT CAVOK 22/13 Q1012 NOSIG
GMTT 220230Z 20006KT 8000 SCT016 18/15 Q1014 NOSIG
TAF GMTT 212300Z 2200/2306 25008KT 9999 SCT016 
     BECMG 2203/2205 18012KT 
     BECMG 2214/2216 26014KT 
     PROB30 
     TEMPO 2301/2306 VRB02KT 4000 BR FEW008 SCT016
       
GMTT 220230Z 20006KT 8000 SCT016 18/15 Q1014 NOSIG
TAF GMTT 212300Z 2200/2306 25008KT 9999 SCT016 
     BECMG 2203/2205 18012KT 
     BECMG 2214/2216 26014KT 
     PROB30 
     TEMPO 2301/2306 VRB02KT 4000 BR FEW008 SCT016
       
GMMX 220230Z 04007KT CAVOK 18/09 Q1015 NOSIG
TAF GMMX 212300Z 2200/2306 02006KT CAVOK 
     TEMPO 2215/2220 32016KT
       
GMMN 220230Z 01007KT 9999 SCT020 19/15 Q1015 NOSIG
TAF GMMN 212300Z 2200/2306 36006KT 9999 SCT020 
     BECMG 2208/2211 36012KT CAVOK 
     TEMPO 2214/2218 36014KT
       
GMFK 212300Z 22004KT CAVOK 33/M04 Q1015 NOSIG
GMMZ 220200Z VRB02KT CAVOK 24/M01 Q1014 NOSIG
TAF GMMZ 211700Z 2118/2224 15016KT 9999 FEW050 
     BECMG 2121/2123 24005KT 
     BECMG 2213/2215 20016G32KT
       
GMFF 220200Z 00000KT CAVOK 16/12 Q1016 NOSIG
TAF GMFF 212300Z 2200/2306 20004KT CAVOK 
     BECMG 2208/2212 32010KT 
     BECMG 2214/2218 SCT033 
     BECMG 2222/2302 20004KT CAVOK
       
GMME 220230Z VRB02KT 9999 SCT015 15/13 Q1014 NOSIG
TAF GMME 212300Z 2200/2306 VRB02KT 9999 SCT020 
     TEMPO 2206/2212 32010KT CAVOK 
     TEMPO 2212/2218 8000 SCT015 
     BECMG 2220/2224 26006KT
       
GMTN 220200Z 24013KT CAVOK 22/13 Q1012 NOSIG